createdAt,value
2023-04-12T00:01:55.916Z,5.90
2023-04-12T00:05:35.688Z,6.00
2023-04-12T00:09:15.213Z,6.00
2023-04-12T00:12:55.308Z,5.70
2023-04-12T00:16:29.657Z,5.90
2023-04-12T00:19:50.169Z,6.20
2023-04-12T00:23:51.767Z,6.00
2023-04-12T00:27:12.379Z,6.40
2023-04-12T00:31:13.852Z,5.80
2023-04-12T00:34:34.742Z,6.30
2023-04-12T00:38:29.504Z,6.10
2023-04-12T00:42:07.253Z,5.30
2023-04-12T00:45:57.154Z,5.70
2023-04-12T00:49:20.619Z,5.90
2023-04-12T00:53:00.111Z,5.30
2023-04-12T00:56:39.708Z,5.80
2023-04-12T01:00:20.279Z,5.80
2023-04-12T01:03:52.084Z,5.90
2023-04-12T01:07:30.910Z,5.60
2023-04-12T01:11:02.572Z,6.10
2023-04-12T01:15:00.825Z,5.30
2023-04-12T01:18:27.437Z,5.40
2023-04-12T01:21:51.096Z,5.40
2023-04-12T01:25:59.926Z,5.90
2023-04-12T01:29:18.196Z,5.20
2023-04-12T01:33:07.661Z,5.20
2023-04-12T01:36:47.768Z,4.70
2023-04-12T01:40:24.149Z,4.50
2023-04-12T01:44:01.920Z,4.70
2023-04-12T01:47:39.084Z,4.70
2023-04-12T01:51:20.368Z,5.30
2023-04-12T01:54:40.459Z,5.80
2023-04-12T01:58:32.399Z,6.30
2023-04-12T02:02:09.892Z,5.70
2023-04-12T02:05:46.338Z,5.00
2023-04-12T02:09:07.923Z,4.30
2023-04-12T02:13:19.447Z,5.60
2023-04-12T02:16:47.310Z,4.70
2023-04-12T02:20:32.769Z,4.80
2023-04-12T02:23:47.027Z,4.80
2023-04-12T02:27:38.342Z,5.10
2023-04-12T02:31:18.095Z,4.50
2023-04-12T02:34:58.467Z,4.30
2023-04-12T02:38:31.527Z,5.30
2023-04-12T02:42:10.994Z,4.50
2023-04-12T02:45:49.390Z,4.40
2023-04-12T02:49:09.641Z,4.70
2023-04-12T02:53:24.856Z,4.70
2023-04-12T02:56:37.925Z,4.30
2023-04-12T03:00:49.299Z,4.10
2023-04-12T03:04:22.534Z,4.10
2023-04-12T03:08:06.171Z,4.20
2023-04-12T03:11:22.310Z,4.30
2023-04-12T03:15:15.063Z,4.30
2023-04-12T03:18:42.748Z,3.40
2023-04-12T03:22:36.385Z,4.30
2023-04-12T03:26:09.849Z,4.50
2023-04-12T03:29:47.646Z,4.00
2023-04-12T03:33:09.183Z,4.10
2023-04-12T03:37:02.978Z,4.30
2023-04-12T03:40:39.606Z,4.00
2023-04-12T03:44:01.591Z,4.10
2023-04-12T03:48:07.074Z,4.10
2023-04-12T03:51:44.926Z,4.60
2023-04-12T03:55:22.397Z,4.40
2023-04-12T03:58:59.729Z,4.20
2023-04-12T04:02:19.716Z,3.90
2023-04-12T04:06:20.947Z,4.30
2023-04-12T04:10:00.586Z,4.70
2023-04-12T04:13:48.183Z,4.50
2023-04-12T04:17:08.966Z,4.30
2023-04-12T04:20:58.343Z,4.90
2023-04-12T04:24:33.625Z,4.30
2023-04-12T04:28:15.498Z,4.20
2023-04-12T04:31:45.578Z,3.70
2023-04-12T04:35:23.594Z,4.30
2023-04-12T04:38:46.082Z,4.50
2023-04-12T04:43:07.069Z,4.50
2023-04-12T04:46:38.284Z,4.10
2023-04-12T04:50:11.682Z,4.80
2023-04-12T04:53:55.930Z,5.10
2023-04-12T04:57:31.065Z,6.10
2023-04-12T05:01:04.722Z,5.20
2023-04-12T05:04:41.630Z,5.90
2023-04-12T05:08:19.334Z,5.40
2023-04-12T05:11:55.965Z,5.40
2023-04-12T05:15:32.663Z,5.40
2023-04-12T05:19:16.079Z,5.00
2023-04-12T05:22:50.485Z,5.60
2023-04-12T05:26:11.090Z,5.80
2023-04-12T05:29:57.335Z,5.10
2023-04-12T05:33:50.864Z,4.60
2023-04-12T05:37:11.689Z,5.70
2023-04-12T05:41:13.191Z,6.10
2023-04-12T05:44:39.402Z,6.50
2023-04-12T05:48:15.750Z,6.70
2023-04-12T05:52:06.419Z,6.70
2023-04-12T05:55:48.007Z,5.20
2023-04-12T05:59:09.167Z,6.00
2023-04-12T06:03:10.924Z,5.90
2023-04-12T06:06:24.209Z,6.30
2023-04-12T06:10:15.558Z,5.70
2023-04-12T06:13:34.719Z,5.70
2023-04-12T06:17:37.052Z,6.00
2023-04-12T06:21:12.658Z,6.10
2023-04-12T06:24:35.504Z,6.30
2023-04-12T06:28:29.704Z,6.20
2023-04-12T06:31:49.034Z,6.00
2023-04-12T06:35:51.096Z,6.50
2023-04-12T06:39:27.037Z,6.30
2023-04-12T06:43:09.684Z,6.00
2023-04-12T06:46:45.101Z,7.90
2023-04-12T06:50:07.188Z,6.20
2023-04-12T06:54:08.335Z,7.00
2023-04-12T06:58:22.725Z,6.30
2023-04-12T07:01:24.578Z,5.60
2023-04-12T07:05:31.059Z,5.80
2023-04-12T07:09:06.470Z,6.40
2023-04-12T07:12:44.256Z,6.70
2023-04-12T07:16:20.772Z,6.90
2023-04-12T07:19:42.257Z,7.10
2023-04-12T07:23:41.690Z,6.20
2023-04-12T07:27:19.042Z,6.80
2023-04-12T07:31:00.284Z,6.30
2023-04-12T07:34:21.222Z,6.50
2023-04-12T07:37:57.791Z,6.80
2023-04-12T07:41:33.375Z,7.10
2023-04-12T07:45:36.839Z,6.90
2023-04-12T07:49:12.461Z,7.60
2023-04-12T07:53:18.683Z,6.80
2023-04-12T07:56:11.492Z,6.90
2023-04-12T08:00:05.241Z,7.20
2023-04-12T08:03:44.613Z,6.80
2023-04-12T08:07:29.124Z,6.80
2023-04-12T08:11:07.044Z,6.60
2023-04-12T08:14:36.890Z,6.50
2023-04-12T08:18:17.825Z,6.10
2023-04-12T08:21:38.510Z,6.70
2023-04-12T08:25:14.194Z,6.00
2023-04-12T08:29:08.423Z,6.50
2023-04-12T08:32:28.383Z,6.60
2023-04-12T08:36:27.197Z,6.60
2023-04-12T08:40:11.086Z,5.70
2023-04-12T08:43:39.102Z,5.90
2023-04-12T08:47:13.711Z,6.30
2023-04-12T08:50:50.680Z,5.90
2023-04-12T08:54:41.349Z,6.50
2023-04-12T08:58:08.812Z,6.30
2023-04-12T09:01:46.626Z,5.90
2023-04-12T09:05:29.599Z,6.00
2023-04-12T09:08:56.202Z,6.20
2023-04-12T09:12:55.725Z,6.70
2023-04-12T09:16:45.306Z,7.20
2023-04-12T09:20:07.535Z,6.30
2023-04-12T09:24:09.797Z,7.40
2023-04-12T09:27:46.882Z,6.40
2023-04-12T09:30:51.735Z,6.40
2023-04-12T09:35:00.675Z,6.20
2023-04-12T09:38:12.974Z,6.50
2023-04-12T09:42:18.077Z,6.90
2023-04-12T09:45:39.049Z,5.80
2023-04-12T09:49:42.365Z,5.80
2023-04-12T09:53:28.484Z,6.10
2023-04-12T09:57:07.415Z,6.60
2023-04-12T10:00:44.217Z,6.60
2023-04-12T10:03:55.126Z,6.80
2023-04-12T10:07:55.258Z,6.30
2023-04-12T10:11:28.863Z,7.00
2023-04-12T10:14:48.844Z,6.60
2023-04-12T10:18:26.305Z,5.90
2023-04-12T10:22:28.181Z,5.30
2023-04-12T10:25:58.138Z,5.90
2023-04-12T10:29:36.718Z,5.80
2023-04-12T10:33:16.777Z,5.70
2023-04-12T10:37:03.760Z,5.90
2023-04-12T10:40:26.804Z,5.80
2023-04-12T10:44:26.207Z,6.30
2023-04-12T10:48:00.905Z,5.90
2023-04-12T10:51:24.739Z,6.00
2023-04-12T10:55:32.178Z,4.90
2023-04-12T10:59:07.493Z,5.20
2023-04-12T11:02:13.254Z,4.60
2023-04-12T11:06:16.211Z,5.30
2023-04-12T11:09:43.694Z,5.40
2023-04-12T11:13:39.455Z,5.10
2023-04-12T11:17:26.873Z,4.80
2023-04-12T11:21:12.840Z,5.20
2023-04-12T11:24:54.472Z,4.70
2023-04-12T11:28:29.294Z,4.50
2023-04-12T11:32:17.490Z,4.70
2023-04-12T11:36:12.192Z,5.00
2023-04-12T11:39:52.467Z,4.60
2023-04-12T11:43:09.109Z,4.50
2023-04-12T11:47:16.057Z,5.00
2023-04-12T11:50:51.848Z,4.90
2023-04-12T11:54:29.109Z,5.40
2023-04-12T11:57:53.259Z,5.30
2023-04-12T12:01:44.783Z,4.30
2023-04-12T12:05:21.288Z,4.50
2023-04-12T12:08:42.067Z,4.70
2023-04-12T12:12:35.111Z,4.30
2023-04-12T12:16:12.712Z,4.60
2023-04-12T12:19:44.589Z,3.60
2023-04-12T12:23:11.048Z,4.40
2023-04-12T12:27:06.192Z,3.90
2023-04-12T12:30:42.986Z,3.90
2023-04-12T12:34:21.501Z,4.10
2023-04-12T12:37:58.303Z,3.60
2023-04-12T12:41:23.674Z,4.40
2023-04-12T12:45:29.752Z,4.00
2023-04-12T12:49:02.624Z,4.10
2023-04-12T12:52:41.319Z,3.90
2023-04-12T12:56:12.448Z,3.80
2023-04-12T12:59:39.043Z,3.30
2023-04-12T13:03:21.781Z,3.20
2023-04-12T13:07:22.410Z,3.60
2023-04-12T13:10:59.500Z,3.70
2023-04-12T13:14:41.229Z,3.40
2023-04-12T13:18:26.557Z,3.90
2023-04-12T13:21:53.460Z,3.60
2023-04-12T13:25:14.262Z,3.20
2023-04-12T13:28:58.111Z,3.80
2023-04-12T13:32:59.726Z,3.60
2023-04-12T13:36:20.698Z,3.60
2023-04-12T13:40:23.491Z,3.40
2023-04-12T13:43:34.347Z,3.10
2023-04-12T13:47:20.193Z,3.20
2023-04-12T13:51:15.148Z,3.20
2023-04-12T13:54:44.954Z,3.20
2023-04-12T13:58:39.483Z,3.20
2023-04-12T14:02:07.980Z,3.40
2023-04-12T14:05:27.729Z,3.40
2023-04-12T14:09:29.971Z,2.90
2023-04-12T14:13:07.044Z,3.40
2023-04-12T14:16:45.942Z,3.40
2023-04-12T14:20:08.934Z,2.80
2023-04-12T14:24:00.035Z,3.10
2023-04-12T14:27:41.871Z,3.50
2023-04-12T14:30:58.760Z,3.40
2023-04-12T14:35:04.450Z,2.90
2023-04-12T14:38:35.661Z,2.60
2023-04-12T14:42:15.912Z,3.40
2023-04-12T14:45:51.626Z,3.50
2023-04-12T14:49:24.217Z,3.70
2023-04-12T14:52:52.959Z,4.10
2023-04-12T14:56:46.368Z,3.00
2023-04-12T15:00:17.277Z,3.20
2023-04-12T15:04:16.814Z,3.10
2023-04-12T15:08:00.558Z,3.40
2023-04-12T15:11:38.837Z,3.10
2023-04-12T15:15:12.643Z,3.10
2023-04-12T15:18:47.837Z,3.40
2023-04-12T15:22:35.134Z,3.30
2023-04-12T15:26:02.158Z,3.20
2023-04-12T15:29:43.116Z,3.30
2023-04-12T15:33:33.852Z,3.00
2023-04-12T15:36:58.313Z,3.00
2023-04-12T15:40:21.354Z,3.10
2023-04-12T15:44:31.017Z,3.10
2023-04-12T15:48:01.339Z,3.20
2023-04-12T15:51:41.854Z,3.20
2023-04-12T15:54:58.917Z,3.00
2023-04-12T15:59:05.327Z,2.90
2023-04-12T16:02:38.348Z,3.00
2023-04-12T16:06:18.782Z,3.00
2023-04-12T16:09:41.481Z,3.20
2023-04-12T16:13:32.646Z,3.10
2023-04-12T16:17:09.438Z,3.50
2023-04-12T16:20:47.258Z,3.70
2023-04-12T16:24:24.271Z,3.80
2023-04-12T16:27:55.348Z,4.10
2023-04-12T16:31:50.937Z,3.60
2023-04-12T16:35:17.960Z,3.40
2023-04-12T16:38:55.491Z,3.60
2023-04-12T16:42:16.349Z,3.10
2023-04-12T16:46:10.590Z,3.70
2023-04-12T16:49:48.360Z,3.00
2023-04-12T16:53:26.346Z,3.60
2023-04-12T16:56:48.048Z,3.80
2023-04-12T17:00:29.294Z,3.80
2023-04-12T17:04:20.449Z,3.90
2023-04-12T17:07:45.873Z,3.90
2023-04-12T17:11:35.616Z,4.00
2023-04-12T17:15:17.391Z,4.00
2023-04-12T17:18:54.159Z,4.60
2023-04-12T17:22:11.842Z,4.50
2023-04-12T17:25:48.662Z,4.70
2023-04-12T17:29:42.800Z,4.00
2023-04-12T17:33:20.692Z,5.00
2023-04-12T17:36:42.460Z,4.30
2023-04-12T17:40:33.520Z,5.00
2023-04-12T17:44:14.211Z,4.50
2023-04-12T17:48:01.627Z,4.70
2023-04-12T17:51:30.937Z,4.30
2023-04-12T17:54:51.303Z,5.40
2023-04-12T17:58:44.867Z,4.60
2023-04-12T18:02:22.770Z,4.20
2023-04-12T18:06:00.128Z,4.80
2023-04-12T18:09:29.130Z,4.20
2023-04-12T18:13:26.542Z,4.20
2023-04-12T18:16:44.663Z,4.20
2023-04-12T18:20:34.843Z,4.30
2023-04-12T18:23:53.451Z,4.40
2023-04-12T18:27:56.861Z,4.90
2023-04-12T18:31:08.054Z,4.40
2023-04-12T18:34:53.579Z,5.10
2023-04-12T18:38:38.426Z,4.80
2023-04-12T18:42:26.122Z,4.80
2023-04-12T18:45:53.548Z,4.30
2023-04-12T18:50:06.673Z,4.40
2023-04-12T18:53:33.490Z,3.80
2023-04-12T18:57:10.330Z,4.10
2023-04-12T19:00:58.023Z,4.30
2023-04-12T19:04:25.699Z,3.90
2023-04-12T19:07:56.611Z,4.10
2023-04-12T19:11:41.656Z,4.30
2023-04-12T19:15:18.361Z,4.30
2023-04-12T19:18:37.898Z,4.50
2023-04-12T19:22:28.226Z,4.20
2023-04-12T19:26:00.344Z,4.30
2023-04-12T19:30:00.278Z,4.40
2023-04-12T19:33:41.518Z,5.00
2023-04-12T19:37:00.675Z,4.80
2023-04-12T19:40:50.991Z,4.90
2023-04-12T19:44:23.376Z,4.40
2023-04-12T19:48:10.690Z,4.50
2023-04-12T19:51:42.282Z,4.30
2023-04-12T19:55:31.032Z,4.30
2023-04-12T19:58:54.701Z,4.70
2023-04-12T20:03:01.132Z,4.50
2023-04-12T20:06:33.795Z,4.60
2023-04-12T20:09:52.811Z,4.20
2023-04-12T20:13:36.466Z,4.30
2023-04-12T20:17:25.055Z,5.00
2023-04-12T20:21:04.330Z,4.50
2023-04-12T20:24:52.569Z,4.00
2023-04-12T20:28:44.332Z,4.80
2023-04-12T20:32:06.768Z,4.80
2023-04-12T20:35:29.798Z,4.60
2023-04-12T20:39:07.278Z,4.20
2023-04-12T20:43:08.531Z,4.60
2023-04-12T20:46:27.607Z,5.00
2023-04-12T20:50:30.136Z,5.10
2023-04-12T20:54:19.108Z,5.60
2023-04-12T20:57:28.153Z,5.20
2023-04-12T21:01:23.339Z,5.50
2023-04-12T21:05:01.052Z,5.80
2023-04-12T21:08:38.807Z,5.60
2023-04-12T21:12:16.957Z,5.60
2023-04-12T21:15:53.298Z,5.60
2023-04-12T21:19:30.899Z,5.60
2023-04-12T21:22:53.728Z,5.50
2023-04-12T21:26:39.348Z,5.60
2023-04-12T21:30:17.781Z,5.70
2023-04-12T21:34:21.272Z,5.70
2023-04-12T21:37:51.027Z,5.70
2023-04-12T21:41:29.034Z,5.60
2023-04-12T21:44:46.993Z,5.20
2023-04-12T21:48:40.440Z,6.10
2023-04-12T21:52:19.368Z,5.80
2023-04-12T21:55:40.071Z,5.90
2023-04-12T21:59:45.049Z,6.10
2023-04-12T22:03:20.840Z,5.90
2023-04-12T22:06:57.570Z,5.70
2023-04-12T22:10:18.887Z,6.10
2023-04-12T22:14:19.612Z,6.60
2023-04-12T22:17:51.563Z,6.50
2023-04-12T22:21:47.133Z,6.10
2023-04-12T22:25:17.868Z,6.00
2023-04-12T22:28:49.963Z,6.30
2023-04-12T22:32:33.206Z,6.60
2023-04-12T22:36:14.671Z,6.20
2023-04-12T22:39:44.574Z,6.30
2023-04-12T22:43:21.870Z,7.30
2023-04-12T22:46:57.522Z,7.00
2023-04-12T22:50:41.039Z,7.30
2023-04-12T22:54:13.344Z,7.20
2023-04-12T22:57:53.796Z,6.80
2023-04-12T23:01:31.492Z,6.50
2023-04-12T23:05:09.816Z,6.80
2023-04-12T23:08:58.152Z,6.90
2023-04-12T23:12:23.854Z,5.90
2023-04-12T23:15:59.277Z,5.40
2023-04-12T23:19:33.413Z,5.90
2023-04-12T23:23:18.196Z,6.70
2023-04-12T23:26:52.339Z,6.70
2023-04-12T23:30:18.044Z,5.60
2023-04-12T23:34:21.557Z,5.20
2023-04-12T23:37:32.314Z,6.00
2023-04-12T23:41:41.573Z,5.80
2023-04-12T23:45:05.551Z,5.80
2023-04-12T23:48:59.168Z,5.70
2023-04-12T23:52:26.630Z,5.90
2023-04-12T23:56:06.251Z,6.20
2023-04-12T23:59:40.569Z,6.20
